Time;durP1;ratioP1;P1;durP2;ratioP2;P2;SDS_P1;SDS_P2;PMS_P1;PMS_P2;Temp;Humidity;BMP_temperature;BMP_pressure;BME280_temperature;BME280_humidity;BME280_pressure;Samples;Min_cycle;Max_cycle;Signal;HPM_P1;HPM_P2
2024/04/13 00:04:30;;;;;;;8.35;5.80;;;;;;;;;;10857732;26;20003;-66
2024/04/13 00:09:26;;;;;;;7.25;5.78;;;;;;;;;;10882124;26;20011;-66
2024/04/13 00:14:20;;;;;;;6.32;5.57;;;;;;;;;;10894742;26;20003;-66
2024/04/13 00:19:15;;;;;;;11.18;6.07;;;;;;;;;;10857821;26;20003;-66
2024/04/13 00:24:11;;;;;;;9.57;5.38;;;;;;;;;;10863237;26;20402;-66
2024/04/13 00:29:06;;;;;;;10.00;6.13;;;;;;;;;;10873724;26;20003;-66
2024/04/13 00:34:02;;;;;;;7.38;6.15;;;;;;;;;;10869290;26;20404;-66
2024/04/13 00:38:57;;;;;;;6.70;5.63;;;;;;;;;;10856793;26;20002;-66
2024/04/13 00:43:51;;;;;;;5.90;5.25;;;;;;;;;;10867014;26;20015;-65
2024/04/13 00:48:48;;;;;;;8.80;6.30;;;;;;;;;;10877416;26;20346;-66
2024/04/13 00:53:44;;;;;;;14.02;5.72;;;;;;;;;;10856887;26;20020;-66
2024/04/13 00:58:38;;;;;;;11.27;5.90;;;;;;;;;;10868781;26;20014;-65
2024/04/13 01:03:35;;;;;;;6.07;4.53;;;;;;;;;;10871895;26;20362;-66
2024/04/13 01:08:29;;;;;;;6.93;5.85;;;;;;;;;;10853440;26;20003;-67
2024/04/13 01:13:23;;;;;;;8.73;5.45;;;;;;;;;;10862952;26;20013;-66
2024/04/13 01:18:17;;;;;;;7.43;5.68;;;;;;;;;;10867971;26;20003;-66
2024/04/13 01:23:13;;;;;;;5.95;5.07;;;;;;;;;;10869650;26;20012;-66
2024/04/13 01:28:08;;;;;;;7.00;5.00;;;;;;;;;;10866132;26;20334;-66
2024/04/13 01:33:05;;;;;;;9.02;5.38;;;;;;;;;;10884449;26;20436;-66
2024/04/13 01:37:59;;;;;;;8.68;4.80;;;;;;;;;;10859618;26;20000;-66
2024/04/13 01:42:54;;;;;;;7.05;4.95;;;;;;;;;;10856928;26;20037;-67
2024/04/13 01:47:47;;;;;;;10.95;4.88;;;;;;;;;;10873456;26;20011;-66
2024/04/13 01:52:42;;;;;;;5.75;4.38;;;;;;;;;;10863123;26;20458;-66
2024/04/13 01:57:37;;;;;;;6.50;4.35;;;;;;;;;;10875928;26;20131;-66
2024/04/13 02:02:31;;;;;;;11.70;4.50;;;;;;;;;;10858182;26;19999;-66
2024/04/13 02:07:29;;;;;;;7.50;4.22;;;;;;;;;;10843051;26;20017;-66
2024/04/13 02:12:23;;;;;;;6.53;4.67;;;;;;;;;;10868506;26;20011;-66
2024/04/13 02:17:18;;;;;;;8.70;3.53;;;;;;;;;;10861543;26;20043;-67
2024/04/13 02:22:12;;;;;;;4.65;4.15;;;;;;;;;;10864957;26;20003;-66
2024/04/13 02:27:06;;;;;;;8.73;5.68;;;;;;;;;;10849795;26;20434;-66
2024/04/13 02:32:00;;;;;;;7.18;6.03;;;;;;;;;;10878664;26;20073;-66
2024/04/13 02:36:54;;;;;;;6.00;5.40;;;;;;;;;;10870875;26;20002;-66
2024/04/13 02:41:48;;;;;;;8.80;5.38;;;;;;;;;;10880547;26;20017;-66
2024/04/13 02:46:43;;;;;;;13.27;6.78;;;;;;;;;;10865021;26;20467;-65
2024/04/13 02:51:37;;;;;;;8.48;5.70;;;;;;;;;;10867738;26;20011;-66
2024/04/13 02:56:33;;;;;;;8.35;4.28;;;;;;;;;;10869523;26;20002;-65
2024/04/13 03:01:27;;;;;;;6.40;5.00;;;;;;;;;;10867164;26;19999;-66
2024/04/13 03:06:22;;;;;;;10.73;5.50;;;;;;;;;;10869268;26;20200;-66
2024/04/13 03:11:17;;;;;;;8.68;5.15;;;;;;;;;;10871542;26;20003;-67
2024/04/13 03:16:12;;;;;;;7.82;4.85;;;;;;;;;;10862599;26;20809;-65
2024/04/13 03:21:07;;;;;;;12.23;6.45;;;;;;;;;;10875916;26;20067;-66
2024/04/13 03:26:03;;;;;;;7.65;6.35;;;;;;;;;;10859710;26;20617;-66
2024/04/13 03:30:57;;;;;;;7.07;6.40;;;;;;;;;;10850730;26;20029;-66
2024/04/13 03:42:00;;;;;;;8.45;5.80;;;;;;;;;;10864635;26;20023;-66
2024/04/13 03:46:55;;;;;;;9.52;6.47;;;;;;;;;;10867615;26;20006;-66
2024/04/13 03:51:51;;;;;;;8.35;5.53;;;;;;;;;;10870723;26;20035;-67
2024/04/13 03:56:46;;;;;;;13.77;5.32;;;;;;;;;;10871982;26;20339;-66
2024/04/13 04:01:44;;;;;;;9.35;4.63;;;;;;;;;;10865200;26;20007;-66
2024/04/13 04:06:39;;;;;;;5.95;5.40;;;;;;;;;;10879545;26;20003;-66
2024/04/13 04:11:34;;;;;;;6.78;4.95;;;;;;;;;;10859195;26;20003;-68
2024/04/13 04:16:29;;;;;;;5.72;4.45;;;;;;;;;;10865343;26;20031;-68
2024/04/13 04:21:24;;;;;;;6.70;4.25;;;;;;;;;;10863178;26;20017;-66
2024/04/13 04:26:19;;;;;;;7.20;4.47;;;;;;;;;;10867442;26;20077;-66
2024/04/13 04:31:12;;;;;;;5.45;4.10;;;;;;;;;;10867641;26;20370;-66
2024/04/13 04:36:11;;;;;;;5.68;5.18;;;;;;;;;;10886955;26;20003;-66
2024/04/13 04:41:22;;;;;;;4.60;4.10;;;;;;;;;;10870223;26;20453;-65
2024/04/13 04:46:16;;;;;;;4.43;3.97;;;;;;;;;;10854537;26;20327;-67
2024/04/13 04:51:11;;;;;;;4.80;4.25;;;;;;;;;;10886271;26;20014;-66
2024/04/13 04:56:06;;;;;;;7.47;4.80;;;;;;;;;;10865068;26;20455;-68
2024/04/13 05:01:02;;;;;;;7.00;3.83;;;;;;;;;;10859417;26;20010;-66
2024/04/13 05:05:57;;;;;;;4.85;3.92;;;;;;;;;;10849365;26;20421;-66
2024/04/13 05:10:51;;;;;;;6.00;4.00;;;;;;;;;;10863647;26;20003;-66
2024/04/13 05:15:46;;;;;;;8.38;4.47;;;;;;;;;;10855871;26;20393;-67
2024/04/13 05:20:41;;;;;;;5.55;3.70;;;;;;;;;;10899480;26;20047;-67
2024/04/13 05:25:35;;;;;;;5.45;4.03;;;;;;;;;;10904585;26;20011;-66
2024/04/13 05:30:30;;;;;;;7.13;4.57;;;;;;;;;;10887913;26;20017;-66
2024/04/13 05:35:24;;;;;;;5.97;4.65;;;;;;;;;;10899676;26;20015;-65
2024/04/13 05:40:18;;;;;;;9.15;4.05;;;;;;;;;;10905350;26;20015;-66
2024/04/13 05:45:14;;;;;;;4.72;4.00;;;;;;;;;;10903862;26;20003;-66
2024/04/13 05:50:08;;;;;;;4.93;4.25;;;;;;;;;;10889466;26;20014;-66
2024/04/13 05:55:02;;;;;;;5.63;4.35;;;;;;;;;;10884074;26;20010;-66
2024/04/13 05:59:57;;;;;;;5.88;3.88;;;;;;;;;;10903615;26;20011;-66
2024/04/13 06:04:51;;;;;;;6.07;3.88;;;;;;;;;;10902286;26;20003;-66
2024/04/13 06:09:45;;;;;;;7.85;4.40;;;;;;;;;;10911015;26;20010;-66
2024/04/13 06:14:40;;;;;;;7.03;4.20;;;;;;;;;;10925250;26;20014;-66
2024/04/13 06:19:34;;;;;;;6.25;4.35;;;;;;;;;;10910273;26;20003;-66
2024/04/13 06:24:29;;;;;;;7.80;4.38;;;;;;;;;;10909753;26;20342;-65
2024/04/13 06:29:23;;;;;;;5.10;4.60;;;;;;;;;;10901834;26;19999;-66
2024/04/13 06:34:18;;;;;;;9.25;4.55;;;;;;;;;;10900091;26;20079;-67
2024/04/13 06:39:14;;;;;;;4.45;4.00;;;;;;;;;;10900358;26;19999;-65
2024/04/13 06:44:08;;;;;;;8.35;4.55;;;;;;;;;;10909433;26;20031;-66
2024/04/13 06:49:04;;;;;;;9.43;5.07;;;;;;;;;;10909306;26;20007;-66
2024/04/13 06:53:58;;;;;;;9.70;5.63;;;;;;;;;;10909128;26;20017;-65
2024/04/13 06:58:52;;;;;;;14.30;5.63;;;;;;;;;;10909350;26;20080;-65
2024/04/13 07:03:46;;;;;;;8.98;5.50;;;;;;;;;;10870715;26;20011;-65
2024/04/13 07:08:43;;;;;;;10.45;9.40;;;;;;;;;;10865726;26;20015;-65
2024/04/13 07:13:37;;;;;;;11.10;7.45;;;;;;;;;;10928853;26;20017;-66
2024/04/13 07:18:32;;;;;;;11.98;7.47;;;;;;;;;;10889713;26;20002;-65
2024/04/13 07:23:27;;;;;;;15.20;9.07;;;;;;;;;;10871711;26;20083;-73
2024/04/13 07:28:22;;;;;;;9.63;8.27;;;;;;;;;;10887526;26;20054;-75
2024/04/13 07:33:16;;;;;;;9.27;6.53;;;;;;;;;;10908207;26;20003;-72
2024/04/13 07:38:11;;;;;;;9.13;7.05;;;;;;;;;;10903727;26;20003;-72
2024/04/13 07:43:06;;;;;;;11.10;6.60;;;;;;;;;;10900377;26;20002;-73
2024/04/13 07:48:01;;;;;;;10.18;6.55;;;;;;;;;;10900466;26;20658;-73
2024/04/13 07:52:57;;;;;;;15.13;8.27;;;;;;;;;;10898389;26;20451;-73
2024/04/13 07:57:51;;;;;;;14.15;7.88;;;;;;;;;;10900325;26;20002;-73
2024/04/13 08:02:46;;;;;;;9.00;7.80;;;;;;;;;;10887648;26;20011;-72
2024/04/13 08:07:40;;;;;;;11.60;8.30;;;;;;;;;;10884124;26;20014;-73
2024/04/13 08:12:33;;;;;;;13.40;8.52;;;;;;;;;;10909276;26;20022;-73
2024/04/13 08:17:29;;;;;;;12.80;8.98;;;;;;;;;;10882100;26;20010;-73
2024/04/13 08:22:23;;;;;;;7.68;6.55;;;;;;;;;;10891567;26;20043;-73
2024/04/13 08:27:17;;;;;;;10.50;7.03;;;;;;;;;;10896135;26;20017;-73
2024/04/13 08:32:12;;;;;;;11.45;7.07;;;;;;;;;;10894499;26;19999;-73
2024/04/13 08:37:06;;;;;;;12.88;6.85;;;;;;;;;;10904998;26;20348;-73
2024/04/13 08:42:05;;;;;;;6.70;5.97;;;;;;;;;;10904820;26;20007;-73
2024/04/13 08:47:02;;;;;;;6.13;4.88;;;;;;;;;;10905365;26;20011;-73
2024/04/13 08:51:57;;;;;;;17.10;5.87;;;;;;;;;;10894532;26;20003;-72
2024/04/13 08:56:52;;;;;;;5.88;5.13;;;;;;;;;;10905004;26;20003;-74
2024/04/13 09:01:48;;;;;;;10.55;4.57;;;;;;;;;;10904419;26;20002;-72
2024/04/13 09:06:44;;;;;;;8.27;4.38;;;;;;;;;;10904041;26;20002;-72
2024/04/13 09:11:41;;;;;;;4.75;3.35;;;;;;;;;;10896631;26;20002;-70
2024/04/13 09:16:35;;;;;;;5.18;4.10;;;;;;;;;;10868732;26;19999;-71
2024/04/13 09:21:32;;;;;;;6.85;3.60;;;;;;;;;;10860020;26;20086;-70
2024/04/13 09:26:26;;;;;;;6.03;4.72;;;;;;;;;;10854528;26;20112;-71
2024/04/13 09:31:20;;;;;;;11.25;5.13;;;;;;;;;;10872346;26;20311;-71
2024/04/13 09:36:24;;;;;;;11.98;6.60;;;;;;;;;;10862489;26;20000;-71
2024/04/13 09:41:19;;;;;;;11.98;5.75;;;;;;;;;;10865923;26;20003;-71
2024/04/13 09:46:14;;;;;;;8.75;6.20;;;;;;;;;;10890943;26;20003;-70
2024/04/13 09:51:08;;;;;;;10.70;5.47;;;;;;;;;;10895342;26;20003;-71
2024/04/13 09:56:03;;;;;;;7.10;4.82;;;;;;;;;;10857138;26;20003;-71
2024/04/13 10:01:04;;;;;;;7.60;5.53;;;;;;;;;;10872797;26;20015;-72
2024/04/13 10:06:00;;;;;;;7.60;5.25;;;;;;;;;;10893823;26;20026;-71
2024/04/13 10:10:54;;;;;;;8.82;4.30;;;;;;;;;;10889258;26;20068;-71
2024/04/13 10:15:48;;;;;;;7.25;5.28;;;;;;;;;;10907343;26;20547;-71
2024/04/13 10:20:42;;;;;;;11.25;5.38;;;;;;;;;;10901626;26;20003;-72
2024/04/13 10:25:36;;;;;;;6.05;5.25;;;;;;;;;;10879658;26;20146;-71
2024/04/13 10:30:48;;;;;;;5.90;4.22;;;;;;;;;;10890427;26;20022;-71
2024/04/13 10:36:01;;;;;;;6.90;4.05;;;;;;;;;;10899848;26;20003;-72
2024/04/13 10:40:55;;;;;;;10.50;7.13;;;;;;;;;;10905240;26;20013;-71
2024/04/13 10:45:52;;;;;;;10.20;5.05;;;;;;;;;;10900061;26;20010;-71
2024/04/13 10:50:48;;;;;;;23.95;5.18;;;;;;;;;;10901494;26;20029;-71
2024/04/13 10:55:42;;;;;;;11.95;5.53;;;;;;;;;;10904931;26;20083;-72
2024/04/13 11:00:35;;;;;;;9.07;6.30;;;;;;;;;;10906885;26;20067;-72
2024/04/13 11:05:31;;;;;;;14.55;5.72;;;;;;;;;;10899019;26;20019;-71
2024/04/13 11:10:25;;;;;;;17.92;8.02;;;;;;;;;;10883275;26;20467;-72
2024/04/13 11:15:19;;;;;;;8.10;4.60;;;;;;;;;;10898484;26;20017;-71
2024/04/13 11:20:15;;;;;;;10.10;5.85;;;;;;;;;;10883925;26;20636;-71
2024/04/13 11:25:08;;;;;;;;;;;;;;;;;;10859513;26;20410;-71
2024/04/13 11:30:06;;;;;;;14.93;6.55;;;;;;;;;;10876697;26;19929;-71
2024/04/13 11:35:01;;;;;;;7.37;6.50;;;;;;;;;;10906555;26;20043;-71
2024/04/13 11:39:55;;;;;;;9.85;7.72;;;;;;;;;;10847288;26;20003;-70
2024/04/13 11:44:49;;;;;;;10.40;9.23;;;;;;;;;;10857261;26;20092;-73
2024/04/13 11:49:43;;;;;;;8.50;7.15;;;;;;;;;;10884226;26;20134;-71
2024/04/13 11:54:37;;;;;;;9.32;7.68;;;;;;;;;;10869753;26;20343;-71
2024/04/13 11:59:32;;;;;;;12.00;8.10;;;;;;;;;;10869015;26;20422;-71
2024/04/13 12:04:25;;;;;;;7.53;6.63;;;;;;;;;;10864234;26;20006;-71
2024/04/13 12:09:19;;;;;;;12.98;7.40;;;;;;;;;;10852208;26;20010;-70
2024/04/13 12:14:14;;;;;;;8.88;7.63;;;;;;;;;;10882791;26;20423;-73
2024/04/13 12:19:08;;;;;;;11.27;7.18;;;;;;;;;;10897858;26;20011;-71
2024/04/13 12:24:04;;;;;;;8.48;6.50;;;;;;;;;;10865165;26;20027;-70
2024/04/13 12:28:58;;;;;;;5.97;5.03;;;;;;;;;;10884031;26;20446;-70
2024/04/13 12:33:53;;;;;;;11.23;5.03;;;;;;;;;;10837325;26;20025;-73
2024/04/13 12:38:47;;;;;;;7.28;5.35;;;;;;;;;;10840375;26;20081;-73
2024/04/13 12:43:41;;;;;;;7.43;5.60;;;;;;;;;;10841050;26;20000;-71
2024/04/13 12:48:36;;;;;;;7.93;5.20;;;;;;;;;;10857497;26;20004;-72
2024/04/13 12:53:30;;;;;;;14.00;8.77;;;;;;;;;;10862046;26;20007;-71
2024/04/13 12:58:25;;;;;;;10.23;6.78;;;;;;;;;;10855202;26;20010;-70
2024/04/13 13:03:19;;;;;;;10.27;6.15;;;;;;;;;;10858737;26;20004;-71
2024/04/13 13:08:14;;;;;;;8.27;6.40;;;;;;;;;;10854948;26;20000;-71
2024/04/13 13:13:08;;;;;;;11.70;7.65;;;;;;;;;;10873543;26;20081;-71
2024/04/13 13:18:03;;;;;;;7.38;6.50;;;;;;;;;;10848663;26;20044;-71
2024/04/13 13:22:56;;;;;;;9.25;5.50;;;;;;;;;;10845032;26;20004;-72
2024/04/13 13:27:50;;;;;;;7.85;5.20;;;;;;;;;;10843665;26;20011;-72
2024/04/13 13:32:44;;;;;;;14.65;6.30;;;;;;;;;;10871058;26;20003;-66
2024/04/13 13:37:38;;;;;;;7.13;5.00;;;;;;;;;;10866691;26;20324;-66
2024/04/13 13:42:33;;;;;;;6.60;4.60;;;;;;;;;;10873783;26;20026;-66
2024/04/13 13:47:27;;;;;;;8.57;5.22;;;;;;;;;;10862828;26;20011;-66
2024/04/13 13:52:23;;;;;;;7.13;4.63;;;;;;;;;;10868465;26;20512;-67
2024/04/13 13:57:16;;;;;;;5.15;4.10;;;;;;;;;;10864252;26;20033;-67
2024/04/13 14:02:10;;;;;;;8.30;4.18;;;;;;;;;;10869401;26;20010;-67
2024/04/13 14:07:05;;;;;;;5.57;4.00;;;;;;;;;;10854202;26;20007;-66
2024/04/13 14:12:00;;;;;;;6.78;4.35;;;;;;;;;;10866087;26;20015;-67
2024/04/13 14:16:55;;;;;;;11.27;4.22;;;;;;;;;;10860728;26;20048;-66
2024/04/13 14:21:49;;;;;;;11.02;5.22;;;;;;;;;;10858402;26;20035;-66
2024/04/13 14:26:42;;;;;;;4.20;3.80;;;;;;;;;;10867956;26;20003;-66
2024/04/13 14:31:36;;;;;;;7.22;4.32;;;;;;;;;;10869556;26;20039;-66
2024/04/13 14:36:31;;;;;;;7.47;4.30;;;;;;;;;;10888645;26;20008;-68
2024/04/13 14:41:25;;;;;;;6.93;4.60;;;;;;;;;;10873905;26;20310;-68
2024/04/13 14:46:20;;;;;;;10.50;4.45;;;;;;;;;;10889420;26;20446;-66
2024/04/13 14:51:14;;;;;;;8.70;4.88;;;;;;;;;;10869324;26;20014;-65
2024/04/13 14:56:08;;;;;;;4.50;3.97;;;;;;;;;;10864956;26;20443;-66
2024/04/13 15:01:05;;;;;;;6.00;4.30;;;;;;;;;;10868994;26;20003;-65
2024/04/13 15:05:59;;;;;;;7.65;4.60;;;;;;;;;;10859887;26;20011;-65
2024/04/13 15:10:53;;;;;;;5.32;4.03;;;;;;;;;;10875066;26;20003;-65
2024/04/13 15:15:48;;;;;;;9.25;5.60;;;;;;;;;;10871079;26;20400;-65
2024/04/13 15:20:42;;;;;;;6.88;5.25;;;;;;;;;;10861897;26;20006;-67
2024/04/13 15:25:37;;;;;;;8.43;4.70;;;;;;;;;;10869229;26;19999;-67
2024/04/13 15:30:31;;;;;;;6.28;4.53;;;;;;;;;;10876481;26;20011;-66
2024/04/13 15:35:25;;;;;;;7.75;5.18;;;;;;;;;;10869117;26;20339;-67
2024/04/13 15:40:19;;;;;;;6.13;4.68;;;;;;;;;;10903315;26;20024;-67
2024/04/13 15:45:14;;;;;;;6.65;4.60;;;;;;;;;;10906254;26;20003;-66
2024/04/13 15:50:08;;;;;;;9.43;4.95;;;;;;;;;;10896131;26;20013;-66
2024/04/13 15:55:03;;;;;;;11.30;5.47;;;;;;;;;;10899230;26;20038;-67
2024/04/13 15:59:59;;;;;;;7.15;5.60;;;;;;;;;;10902168;26;20003;-65
2024/04/13 16:05:00;;;;;;;8.50;4.97;;;;;;;;;;10895867;26;20556;-66
2024/04/13 16:09:55;;;;;;;7.18;4.55;;;;;;;;;;10903794;26;20050;-67
2024/04/13 16:14:50;;;;;;;9.68;7.25;;;;;;;;;;10903510;26;20013;-67
2024/04/13 16:19:43;;;;;;;6.43;4.90;;;;;;;;;;10892073;26;20016;-67
2024/04/13 16:24:37;;;;;;;9.27;5.25;;;;;;;;;;10902504;26;20086;-67
2024/04/13 16:29:33;;;;;;;8.05;6.45;;;;;;;;;;10906836;26;20015;-67
2024/04/13 16:34:27;;;;;;;11.02;5.95;;;;;;;;;;10906195;26;20455;-67
2024/04/13 16:39:25;;;;;;;7.45;5.15;;;;;;;;;;10906531;26;20075;-67
2024/04/13 16:44:20;;;;;;;6.68;4.93;;;;;;;;;;10883293;26;20435;-66
2024/04/13 16:49:16;;;;;;;7.88;6.07;;;;;;;;;;10905189;26;20011;-66
2024/04/13 16:54:11;;;;;;;10.60;5.90;;;;;;;;;;10906205;26;20022;-66
2024/04/13 16:59:06;;;;;;;9.25;5.93;;;;;;;;;;10905756;26;20003;-67
2024/04/13 17:04:01;;;;;;;8.05;5.38;;;;;;;;;;10905967;26;20022;-67
2024/04/13 17:08:55;;;;;;;11.18;5.90;;;;;;;;;;10906211;26;20002;-66
2024/04/13 17:13:49;;;;;;;12.88;5.72;;;;;;;;;;10917840;26;20003;-67
2024/04/13 17:18:44;;;;;;;8.18;5.35;;;;;;;;;;10905725;26;20427;-68
2024/04/13 17:23:40;;;;;;;8.23;5.03;;;;;;;;;;10906025;26;20002;-66
2024/04/13 17:28:35;;;;;;;8.82;6.35;;;;;;;;;;10905387;26;20003;-66
2024/04/13 17:33:29;;;;;;;6.13;5.15;;;;;;;;;;10904831;26;20002;-67
2024/04/13 17:38:22;;;;;;;9.73;5.20;;;;;;;;;;10904267;26;20023;-67
2024/04/13 17:43:17;;;;;;;9.88;5.60;;;;;;;;;;10904237;26;20709;-67
2024/04/13 17:48:11;;;;;;;12.80;6.68;;;;;;;;;;10904266;26;20002;-65
2024/04/13 17:53:06;;;;;;;8.18;6.53;;;;;;;;;;10903610;26;20011;-67
2024/04/13 17:58:00;;;;;;;12.75;5.93;;;;;;;;;;10896369;26;20018;-66
2024/04/13 18:02:57;;;;;;;12.23;8.63;;;;;;;;;;10887442;26;20331;-67
2024/04/13 18:07:54;;;;;;;11.27;6.97;;;;;;;;;;10891357;26;20447;-67
2024/04/13 18:12:48;;;;;;;9.55;7.03;;;;;;;;;;10890347;26;20031;-66
2024/04/13 18:17:43;;;;;;;8.38;6.07;;;;;;;;;;10888616;26;20019;-67
2024/04/13 18:22:36;;;;;;;9.50;6.57;;;;;;;;;;10907423;26;20523;-66
2024/04/13 18:27:31;;;;;;;10.70;6.25;;;;;;;;;;10881900;26;20003;-67
2024/04/13 18:32:25;;;;;;;8.82;6.15;;;;;;;;;;10906427;26;20535;-67
2024/04/13 18:37:19;;;;;;;7.80;6.38;;;;;;;;;;10909531;26;20511;-66
2024/04/13 18:42:15;;;;;;;11.75;7.18;;;;;;;;;;10909236;26;20003;-67
2024/04/13 18:47:09;;;;;;;9.85;7.22;;;;;;;;;;10909555;26;20010;-66
2024/04/13 18:52:04;;;;;;;8.25;7.10;;;;;;;;;;10909660;26;20003;-65
2024/04/13 18:56:58;;;;;;;14.00;6.93;;;;;;;;;;10909971;26;20404;-66
2024/04/13 19:01:53;;;;;;;7.32;6.15;;;;;;;;;;10868203;26;20151;-66
2024/04/13 19:06:47;;;;;;;7.05;6.35;;;;;;;;;;10900754;26;20371;-66
2024/04/13 19:11:42;;;;;;;11.10;6.50;;;;;;;;;;10911941;26;20003;-66
2024/04/13 19:16:36;;;;;;;12.15;7.05;;;;;;;;;;10909250;26;20803;-66
2024/04/13 19:21:30;;;;;;;12.00;7.85;;;;;;;;;;10909090;26;20013;-66
2024/04/13 19:26:25;;;;;;;6.80;6.20;;;;;;;;;;10908561;26;20083;-66
2024/04/13 19:31:19;;;;;;;13.60;6.43;;;;;;;;;;10908760;26;19999;-64
2024/04/13 19:36:13;;;;;;;8.80;6.07;;;;;;;;;;10908375;26;20031;-66
2024/04/13 19:41:08;;;;;;;8.65;6.55;;;;;;;;;;10878620;26;20003;-65
2024/04/13 19:46:03;;;;;;;9.77;6.22;;;;;;;;;;10867650;26;20028;-66
2024/04/13 19:50:57;;;;;;;14.20;7.78;;;;;;;;;;10896271;26;20011;-65
2024/04/13 19:55:51;;;;;;;7.63;6.43;;;;;;;;;;10875135;26;20013;-66
2024/04/13 20:00:45;;;;;;;9.10;6.95;;;;;;;;;;10873548;26;20017;-66
2024/04/13 20:05:40;;;;;;;10.85;7.20;;;;;;;;;;10868465;26;20031;-68
2024/04/13 20:10:35;;;;;;;11.23;7.28;;;;;;;;;;10882970;26;20171;-66
2024/04/13 20:20:41;;;;;;;13.57;7.03;;;;;;;;;;10901955;26;20003;-66
2024/04/13 20:25:36;;;;;;;14.77;8.65;;;;;;;;;;10897950;26;20088;-67
2024/04/13 20:30:30;;;;;;;9.80;6.65;;;;;;;;;;10899876;26;20018;-66
2024/04/13 20:35:24;;;;;;;10.00;7.13;;;;;;;;;;10879196;26;20014;-66
2024/04/13 20:40:18;;;;;;;9.50;7.57;;;;;;;;;;10896440;26;20002;-67
2024/04/13 20:45:12;;;;;;;7.82;7.05;;;;;;;;;;10901354;26;20006;-64
2024/04/13 20:50:10;;;;;;;11.75;7.30;;;;;;;;;;10905684;26;20003;-66
2024/04/13 20:55:06;;;;;;;10.40;6.57;;;;;;;;;;10905931;26;20003;-67
2024/04/13 20:59:59;;;;;;;11.88;6.80;;;;;;;;;;10905924;26;20017;-66
2024/04/13 21:04:54;;;;;;;9.88;7.03;;;;;;;;;;10905657;26;20018;-67
2024/04/13 21:09:48;;;;;;;7.75;6.82;;;;;;;;;;10905987;26;20022;-69
2024/04/13 21:14:42;;;;;;;10.98;6.65;;;;;;;;;;10918404;26;20003;-69
2024/04/13 21:19:36;;;;;;;8.45;6.68;;;;;;;;;;10894328;26;20463;-70
2024/04/13 21:24:32;;;;;;;8.05;7.00;;;;;;;;;;10899341;26;20018;-69
2024/04/13 21:29:26;;;;;;;11.13;7.00;;;;;;;;;;10897980;26;20003;-69
2024/04/13 21:34:22;;;;;;;18.88;7.80;;;;;;;;;;10904105;26;20364;-68
2024/04/13 21:39:19;;;;;;;13.18;5.47;;;;;;;;;;10897966;26;20079;-69
2024/04/13 21:44:16;;;;;;;7.82;6.93;;;;;;;;;;10905076;26;20031;-70
2024/04/13 21:49:10;;;;;;;8.57;5.70;;;;;;;;;;10902860;26;20079;-69
2024/04/13 21:54:04;;;;;;;7.65;6.28;;;;;;;;;;10904376;26;20087;-70
2024/04/13 21:58:58;;;;;;;9.95;6.60;;;;;;;;;;10904548;26;20612;-69
2024/04/13 22:03:52;;;;;;;8.48;6.70;;;;;;;;;;10904426;26;20011;-69
2024/04/13 22:08:46;;;;;;;7.28;5.93;;;;;;;;;;10887008;26;20022;-69
2024/04/13 22:13:48;;;;;;;10.43;6.53;;;;;;;;;;10900384;26;20011;-70
2024/04/13 22:18:43;;;;;;;9.00;6.47;;;;;;;;;;10904119;26;20003;-69
2024/04/13 22:23:38;;;;;;;8.48;5.70;;;;;;;;;;10903525;26;20003;-70
2024/04/13 22:28:34;;;;;;;8.07;7.03;;;;;;;;;;10903453;26;20033;-70
2024/04/13 22:33:30;;;;;;;7.20;6.60;;;;;;;;;;10903366;26;20013;-70
2024/04/13 22:38:24;;;;;;;8.48;6.32;;;;;;;;;;10902220;26;20015;-69
2024/04/13 22:43:22;;;;;;;7.43;6.28;;;;;;;;;;10903374;26;20003;-69
2024/04/13 22:48:14;;;;;;;8.90;5.68;;;;;;;;;;10906758;26;20390;-68
2024/04/13 22:53:09;;;;;;;11.77;6.13;;;;;;;;;;10909891;26;20014;-70
2024/04/13 22:58:04;;;;;;;7.00;6.30;;;;;;;;;;10910299;26;20386;-69
2024/04/13 23:02:58;;;;;;;13.20;5.72;;;;;;;;;;10909728;26;20295;-68
2024/04/13 23:07:52;;;;;;;8.07;5.93;;;;;;;;;;10908688;26;20013;-69
2024/04/13 23:12:47;;;;;;;12.32;5.85;;;;;;;;;;10920186;26;20007;-69
2024/04/13 23:17:41;;;;;;;7.93;6.18;;;;;;;;;;10908164;26;20461;-69
2024/04/13 23:22:35;;;;;;;11.27;6.07;;;;;;;;;;10908567;26;20034;-68
2024/04/13 23:27:29;;;;;;;7.32;5.60;;;;;;;;;;10906395;26;20282;-69
2024/04/13 23:32:23;;;;;;;7.68;6.45;;;;;;;;;;10908318;26;20048;-69
2024/04/13 23:37:17;;;;;;;7.30;5.82;;;;;;;;;;10908474;26;20003;-69
2024/04/13 23:42:12;;;;;;;8.77;6.63;;;;;;;;;;10908123;26;20006;-69
2024/04/13 23:47:06;;;;;;;9.05;6.15;;;;;;;;;;10907954;26;20013;-69
2024/04/13 23:52:01;;;;;;;7.25;5.47;;;;;;;;;;10907860;26;20014;-70
2024/04/13 23:56:56;;;;;;;8.73;6.22;;;;;;;;;;10907990;26;20003;-70
